sensor_id;sensor_type;location;lat;lon;timestamp;temperature;humidity
2565;DHT22;1292;48.020;7.822;2023-07-13T05:46:32;21.20;99.90
2565;DHT22;1292;48.020;7.822;2023-07-13T05:48:59;21.20;99.90
2565;DHT22;1292;48.020;7.822;2023-07-13T05:51:26;21.30;99.90
2565;DHT22;1292;48.020;7.822;2023-07-13T05:53:53;21.30;99.90
2565;DHT22;1292;48.020;7.822;2023-07-13T05:56:20;21.40;99.90
2565;DHT22;1292;48.020;7.822;2023-07-13T05:58:47;21.50;99.90
2565;DHT22;1292;48.020;7.822;2023-07-13T06:01:16;21.60;99.90
2565;DHT22;1292;48.020;7.822;2023-07-13T06:03:44;21.60;99.90
2565;DHT22;1292;48.020;7.822;2023-07-13T06:06:11;21.70;99.90
2565;DHT22;1292;48.020;7.822;2023-07-13T06:08:38;21.70;99.90
2565;DHT22;1292;48.020;7.822;2023-07-13T06:11:06;21.80;99.90
2565;DHT22;1292;48.020;7.822;2023-07-13T06:13:34;21.80;99.90
2565;DHT22;1292;48.020;7.822;2023-07-13T06:16:01;21.60;99.90
2565;DHT22;1292;48.020;7.822;2023-07-13T06:18:29;21.60;99.90
2565;DHT22;1292;48.020;7.822;2023-07-13T06:20:58;21.60;99.90
2565;DHT22;1292;48.020;7.822;2023-07-13T06:23:25;21.70;99.90
2565;DHT22;1292;48.020;7.822;2023-07-13T06:25:52;21.80;99.90
2565;DHT22;1292;48.020;7.822;2023-07-13T06:28:19;21.90;99.90
2565;DHT22;1292;48.020;7.822;2023-07-13T06:30:45;21.90;99.90
2565;DHT22;1292;48.020;7.822;2023-07-13T06:33:12;22.00;99.90
2565;DHT22;1292;48.020;7.822;2023-07-13T06:35:39;21.90;99.90
2565;DHT22;1292;48.020;7.822;2023-07-13T06:38:08;21.90;99.90
2565;DHT22;1292;48.020;7.822;2023-07-13T06:40:35;21.90;99.90
2565;DHT22;1292;48.020;7.822;2023-07-13T06:43:01;21.90;99.90
2565;DHT22;1292;48.020;7.822;2023-07-13T06:45:28;21.90;99.90
2565;DHT22;1292;48.020;7.822;2023-07-13T06:47:55;22.00;99.90
2565;DHT22;1292;48.020;7.822;2023-07-13T06:50:22;22.10;99.90
2565;DHT22;1292;48.020;7.822;2023-07-13T06:52:49;22.00;99.90
2565;DHT22;1292;48.020;7.822;2023-07-13T06:55:17;22.10;99.90
2565;DHT22;1292;48.020;7.822;2023-07-13T06:57:44;22.10;99.90
2565;DHT22;1292;48.020;7.822;2023-07-13T07:00:12;22.20;99.90
2565;DHT22;1292;48.020;7.822;2023-07-13T07:02:39;22.20;99.90
2565;DHT22;1292;48.020;7.822;2023-07-13T07:05:05;22.20;99.90
2565;DHT22;1292;48.020;7.822;2023-07-13T07:07:32;22.20;99.90
2565;DHT22;1292;48.020;7.822;2023-07-13T07:09:59;22.10;99.90
2565;DHT22;1292;48.020;7.822;2023-07-13T07:12:28;22.00;99.90
2565;DHT22;1292;48.020;7.822;2023-07-13T07:14:55;22.00;99.90
2565;DHT22;1292;48.020;7.822;2023-07-13T07:17:21;22.00;99.90
2565;DHT22;1292;48.020;7.822;2023-07-13T07:19:48;22.00;99.90
2565;DHT22;1292;48.020;7.822;2023-07-13T07:22:15;22.10;99.90
2565;DHT22;1292;48.020;7.822;2023-07-13T07:24:42;22.00;99.90
2565;DHT22;1292;48.020;7.822;2023-07-13T07:27:08;22.10;99.90
2565;DHT22;1292;48.020;7.822;2023-07-13T07:29:37;22.20;99.90
2565;DHT22;1292;48.020;7.822;2023-07-13T07:32:04;22.00;99.90
2565;DHT22;1292;48.020;7.822;2023-07-13T07:34:31;22.10;99.90
2565;DHT22;1292;48.020;7.822;2023-07-13T07:37:00;22.20;99.90
2565;DHT22;1292;48.020;7.822;2023-07-13T07:39:27;22.30;99.90
2565;DHT22;1292;48.020;7.822;2023-07-13T07:41:54;22.20;99.90
2565;DHT22;1292;48.020;7.822;2023-07-13T07:44:21;22.20;99.90
2565;DHT22;1292;48.020;7.822;2023-07-13T07:46:49;22.20;99.90
2565;DHT22;1292;48.020;7.822;2023-07-13T07:49:16;22.30;99.90
2565;DHT22;1292;48.020;7.822;2023-07-13T07:51:42;22.30;99.90
2565;DHT22;1292;48.020;7.822;2023-07-13T07:54:09;22.40;99.90
2565;DHT22;1292;48.020;7.822;2023-07-13T07:56:36;22.40;99.90
2565;DHT22;1292;48.020;7.822;2023-07-13T07:59:03;22.40;99.90
2565;DHT22;1292;48.020;7.822;2023-07-13T08:01:29;22.50;99.90
2565;DHT22;1292;48.020;7.822;2023-07-13T08:03:57;22.70;99.90
2565;DHT22;1292;48.020;7.822;2023-07-13T08:06:24;22.90;99.90
2565;DHT22;1292;48.020;7.822;2023-07-13T08:08:51;22.90;99.90
2565;DHT22;1292;48.020;7.822;2023-07-13T08:11:18;23.00;99.90
2565;DHT22;1292;48.020;7.822;2023-07-13T08:13:45;22.90;99.90
2565;DHT22;1292;48.020;7.822;2023-07-13T08:16:12;22.80;99.90
2565;DHT22;1292;48.020;7.822;2023-07-13T08:18:38;22.90;99.90
2565;DHT22;1292;48.020;7.822;2023-07-13T08:21:08;22.90;99.90
2565;DHT22;1292;48.020;7.822;2023-07-13T08:23:35;22.90;99.90
2565;DHT22;1292;48.020;7.822;2023-07-13T08:26:02;22.80;99.90
2565;DHT22;1292;48.020;7.822;2023-07-13T08:28:30;22.90;99.90
2565;DHT22;1292;48.020;7.822;2023-07-13T08:31:00;23.00;99.90
2565;DHT22;1292;48.020;7.822;2023-07-13T08:33:27;23.00;99.90
2565;DHT22;1292;48.020;7.822;2023-07-13T08:35:54;23.10;99.90
2565;DHT22;1292;48.020;7.822;2023-07-13T08:38:22;23.20;99.90
2565;DHT22;1292;48.020;7.822;2023-07-13T08:40:51;23.20;99.90
2565;DHT22;1292;48.020;7.822;2023-07-13T08:43:23;23.20;99.90
2565;DHT22;1292;48.020;7.822;2023-07-13T08:45:56;23.40;99.90
2565;DHT22;1292;48.020;7.822;2023-07-13T08:48:27;23.50;99.90
2565;DHT22;1292;48.020;7.822;2023-07-13T08:50:58;23.60;99.90
2565;DHT22;1292;48.020;7.822;2023-07-13T08:53:32;23.60;99.90
2565;DHT22;1292;48.020;7.822;2023-07-13T08:56:00;23.70;99.90
2565;DHT22;1292;48.020;7.822;2023-07-13T08:58:28;23.90;99.90
2565;DHT22;1292;48.020;7.822;2023-07-13T09:01:01;24.20;99.90
2565;DHT22;1292;48.020;7.822;2023-07-13T09:03:42;24.40;99.90
2565;DHT22;1292;48.020;7.822;2023-07-13T09:06:13;24.80;99.90
2565;DHT22;1292;48.020;7.822;2023-07-13T09:08:51;24.90;99.90
2565;DHT22;1292;48.020;7.822;2023-07-13T09:11:34;25.10;99.90
2565;DHT22;1292;48.020;7.822;2023-07-13T09:14:06;25.30;99.90
2565;DHT22;1292;48.020;7.822;2023-07-13T09:16:37;25.40;99.90
2565;DHT22;1292;48.020;7.822;2023-07-13T09:19:06;25.10;99.90
2565;DHT22;1292;48.020;7.822;2023-07-13T09:21:37;25.20;99.90
2565;DHT22;1292;48.020;7.822;2023-07-13T09:24:26;25.20;99.90
2565;DHT22;1292;48.020;7.822;2023-07-13T09:26:54;25.30;99.90
2565;DHT22;1292;48.020;7.822;2023-07-13T09:29:26;25.40;99.90
2565;DHT22;1292;48.020;7.822;2023-07-13T09:31:55;25.50;99.90
2565;DHT22;1292;48.020;7.822;2023-07-13T09:34:26;25.50;99.90
2565;DHT22;1292;48.020;7.822;2023-07-13T09:36:52;25.30;99.90
2565;DHT22;1292;48.020;7.822;2023-07-13T09:39:25;25.40;99.90
2565;DHT22;1292;48.020;7.822;2023-07-13T09:42:02;25.40;99.90
2565;DHT22;1292;48.020;7.822;2023-07-13T09:44:33;25.40;99.90
2565;DHT22;1292;48.020;7.822;2023-07-13T09:47:01;25.00;99.90
2565;DHT22;1292;48.020;7.822;2023-07-13T09:49:34;25.20;99.90
2565;DHT22;1292;48.020;7.822;2023-07-13T09:52:04;25.50;99.90
2565;DHT22;1292;48.020;7.822;2023-07-13T09:54:35;25.60;99.90
2565;DHT22;1292;48.020;7.822;2023-07-13T09:57:04;25.70;99.90
2565;DHT22;1292;48.020;7.822;2023-07-13T09:59:41;25.90;99.90
2565;DHT22;1292;48.020;7.822;2023-07-13T10:02:23;25.90;99.90
2565;DHT22;1292;48.020;7.822;2023-07-13T10:04:56;26.10;99.90
2565;DHT22;1292;48.020;7.822;2023-07-13T10:07:23;26.10;99.90
2565;DHT22;1292;48.020;7.822;2023-07-13T10:09:53;26.20;99.90
2565;DHT22;1292;48.020;7.822;2023-07-13T10:12:20;26.20;99.90
2565;DHT22;1292;48.020;7.822;2023-07-13T10:14:51;26.40;99.90
2565;DHT22;1292;48.020;7.822;2023-07-13T10:17:21;26.60;99.90
2565;DHT22;1292;48.020;7.822;2023-07-13T10:19:51;26.60;99.90
2565;DHT22;1292;48.020;7.822;2023-07-13T10:22:24;26.60;99.90
2565;DHT22;1292;48.020;7.822;2023-07-13T10:24:53;26.80;99.90
2565;DHT22;1292;48.020;7.822;2023-07-13T10:27:25;27.00;99.90
2565;DHT22;1292;48.020;7.822;2023-07-13T10:29:58;27.10;99.90
2565;DHT22;1292;48.020;7.822;2023-07-13T10:32:27;27.00;99.90
2565;DHT22;1292;48.020;7.822;2023-07-13T10:34:54;26.90;99.90
2565;DHT22;1292;48.020;7.822;2023-07-13T10:37:26;26.70;99.90
2565;DHT22;1292;48.020;7.822;2023-07-13T10:39:56;26.50;99.90
2565;DHT22;1292;48.020;7.822;2023-07-13T10:42:27;26.30;99.90
2565;DHT22;1292;48.020;7.822;2023-07-13T10:44:54;25.80;99.90
2565;DHT22;1292;48.020;7.822;2023-07-13T10:47:22;25.60;99.90
2565;DHT22;1292;48.020;7.822;2023-07-13T10:49:53;25.80;99.90
2565;DHT22;1292;48.020;7.822;2023-07-13T10:52:44;25.90;99.90
2565;DHT22;1292;48.020;7.822;2023-07-13T10:55:38;26.10;99.90
2565;DHT22;1292;48.020;7.822;2023-07-13T10:58:13;26.30;99.90
2565;DHT22;1292;48.020;7.822;2023-07-13T11:00:48;26.60;99.90
2565;DHT22;1292;48.020;7.822;2023-07-13T11:03:18;26.70;99.90
2565;DHT22;1292;48.020;7.822;2023-07-13T11:05:48;27.00;99.90
2565;DHT22;1292;48.020;7.822;2023-07-13T11:08:20;27.00;99.90
2565;DHT22;1292;48.020;7.822;2023-07-13T11:10:54;27.00;99.90
2565;DHT22;1292;48.020;7.822;2023-07-13T11:13:57;26.80;99.90
2565;DHT22;1292;48.020;7.822;2023-07-13T11:16:42;27.10;99.90
2565;DHT22;1292;48.020;7.822;2023-07-13T11:19:29;27.10;99.90
2565;DHT22;1292;48.020;7.822;2023-07-13T11:22:12;27.30;99.90
2565;DHT22;1292;48.020;7.822;2023-07-13T11:24:57;27.30;99.90
2565;DHT22;1292;48.020;7.822;2023-07-13T11:27:44;27.50;99.90
2565;DHT22;1292;48.020;7.822;2023-07-13T11:30:32;27.70;99.90
2565;DHT22;1292;48.020;7.822;2023-07-13T11:33:10;27.80;99.90
2565;DHT22;1292;48.020;7.822;2023-07-13T11:35:44;27.90;99.90
2565;DHT22;1292;48.020;7.822;2023-07-13T11:38:16;27.80;99.90
2565;DHT22;1292;48.020;7.822;2023-07-13T11:40:44;27.70;99.90
2565;DHT22;1292;48.020;7.822;2023-07-13T11:43:14;27.60;99.90
2565;DHT22;1292;48.020;7.822;2023-07-13T11:45:42;27.60;99.90
2565;DHT22;1292;48.020;7.822;2023-07-13T11:48:20;27.30;99.90
2565;DHT22;1292;48.020;7.822;2023-07-13T11:50:58;27.20;99.90
2565;DHT22;1292;48.020;7.822;2023-07-13T11:53:29;27.10;99.90
2565;DHT22;1292;48.020;7.822;2023-07-13T11:55:57;27.10;99.90
2565;DHT22;1292;48.020;7.822;2023-07-13T11:58:26;27.20;99.90
2565;DHT22;1292;48.020;7.822;2023-07-13T12:00:56;26.90;99.90
2565;DHT22;1292;48.020;7.822;2023-07-13T12:03:26;26.70;99.90
2565;DHT22;1292;48.020;7.822;2023-07-13T12:05:59;26.60;99.90
2565;DHT22;1292;48.020;7.822;2023-07-13T12:08:27;26.30;99.90
2565;DHT22;1292;48.020;7.822;2023-07-13T12:11:00;26.20;99.90
2565;DHT22;1292;48.020;7.822;2023-07-13T12:13:35;26.20;99.90
2565;DHT22;1292;48.020;7.822;2023-07-13T12:16:11;26.40;99.90
2565;DHT22;1292;48.020;7.822;2023-07-13T12:18:38;26.20;99.90
2565;DHT22;1292;48.020;7.822;2023-07-13T12:21:09;26.00;99.90
2565;DHT22;1292;48.020;7.822;2023-07-13T12:23:38;26.10;99.90
2565;DHT22;1292;48.020;7.822;2023-07-13T12:26:07;26.00;99.90
2565;DHT22;1292;48.020;7.822;2023-07-13T12:28:38;26.00;99.90
2565;DHT22;1292;48.020;7.822;2023-07-13T12:31:07;26.10;99.90
2565;DHT22;1292;48.020;7.822;2023-07-13T12:33:46;26.30;99.90
2565;DHT22;1292;48.020;7.822;2023-07-13T12:36:13;26.40;99.90
2565;DHT22;1292;48.020;7.822;2023-07-13T12:38:39;26.70;99.90
2565;DHT22;1292;48.020;7.822;2023-07-13T12:41:09;26.70;99.90
2565;DHT22;1292;48.020;7.822;2023-07-13T12:43:37;26.70;99.90
2565;DHT22;1292;48.020;7.822;2023-07-13T12:46:16;26.70;99.90
2565;DHT22;1292;48.020;7.822;2023-07-13T12:48:43;26.60;99.90
2565;DHT22;1292;48.020;7.822;2023-07-13T12:51:13;26.70;99.90
2565;DHT22;1292;48.020;7.822;2023-07-13T12:53:42;26.70;99.90
2565;DHT22;1292;48.020;7.822;2023-07-13T12:56:16;26.80;99.90
2565;DHT22;1292;48.020;7.822;2023-07-13T12:58:47;26.80;99.90
2565;DHT22;1292;48.020;7.822;2023-07-13T13:01:21;26.70;99.90
2565;DHT22;1292;48.020;7.822;2023-07-13T13:03:50;26.60;99.90
2565;DHT22;1292;48.020;7.822;2023-07-13T13:06:24;26.80;99.90
2565;DHT22;1292;48.020;7.822;2023-07-13T13:08:52;26.80;99.90
2565;DHT22;1292;48.020;7.822;2023-07-13T13:11:20;27.00;99.90
2565;DHT22;1292;48.020;7.822;2023-07-13T13:13:50;26.90;99.90
2565;DHT22;1292;48.020;7.822;2023-07-13T13:16:22;27.00;99.90
2565;DHT22;1292;48.020;7.822;2023-07-13T13:18:51;27.30;99.90
2565;DHT22;1292;48.020;7.822;2023-07-13T13:21:18;27.60;99.90
2565;DHT22;1292;48.020;7.822;2023-07-13T13:23:45;27.80;99.90
2565;DHT22;1292;48.020;7.822;2023-07-13T13:26:14;27.60;99.90
2565;DHT22;1292;48.020;7.822;2023-07-13T13:28:42;27.40;99.90
2565;DHT22;1292;48.020;7.822;2023-07-13T13:31:11;27.20;99.90
2565;DHT22;1292;48.020;7.822;2023-07-13T13:33:39;27.20;99.90
2565;DHT22;1292;48.020;7.822;2023-07-13T13:36:13;27.40;99.90
2565;DHT22;1292;48.020;7.822;2023-07-13T13:38:42;27.60;99.90
2565;DHT22;1292;48.020;7.822;2023-07-13T13:41:10;27.80;99.90
2565;DHT22;1292;48.020;7.822;2023-07-13T13:43:39;27.70;99.90
2565;DHT22;1292;48.020;7.822;2023-07-13T13:46:14;27.70;99.90
2565;DHT22;1292;48.020;7.822;2023-07-13T13:48:42;27.80;99.90
2565;DHT22;1292;48.020;7.822;2023-07-13T13:51:15;27.60;99.90
2565;DHT22;1292;48.020;7.822;2023-07-13T13:53:42;27.60;99.90
2565;DHT22;1292;48.020;7.822;2023-07-13T13:56:09;27.60;99.90
2565;DHT22;1292;48.020;7.822;2023-07-13T13:58:36;27.20;99.90
2565;DHT22;1292;48.020;7.822;2023-07-13T14:01:03;27.10;99.90
2565;DHT22;1292;48.020;7.822;2023-07-13T14:03:35;27.00;99.90
2565;DHT22;1292;48.020;7.822;2023-07-13T14:06:01;26.90;99.90
2565;DHT22;1292;48.020;7.822;2023-07-13T14:08:28;26.80;99.90
2565;DHT22;1292;48.020;7.822;2023-07-13T14:10:56;26.50;99.90
2565;DHT22;1292;48.020;7.822;2023-07-13T14:13:27;26.30;99.90
2565;DHT22;1292;48.020;7.822;2023-07-13T14:15:55;26.40;99.90
2565;DHT22;1292;48.020;7.822;2023-07-13T14:18:22;26.30;99.90
2565;DHT22;1292;48.020;7.822;2023-07-13T14:20:50;26.40;99.90
2565;DHT22;1292;48.020;7.822;2023-07-13T14:23:18;26.50;99.90
2565;DHT22;1292;48.020;7.822;2023-07-13T14:25:46;26.30;99.90
2565;DHT22;1292;48.020;7.822;2023-07-13T14:28:20;26.20;99.90
2565;DHT22;1292;48.020;7.822;2023-07-13T14:30:49;26.00;99.90
2565;DHT22;1292;48.020;7.822;2023-07-13T14:33:16;26.00;99.90
2565;DHT22;1292;48.020;7.822;2023-07-13T14:35:43;25.90;99.90
2565;DHT22;1292;48.020;7.822;2023-07-13T14:38:15;25.80;99.90
2565;DHT22;1292;48.020;7.822;2023-07-13T14:40:42;25.80;99.90
2565;DHT22;1292;48.020;7.822;2023-07-13T14:43:10;25.70;99.90
2565;DHT22;1292;48.020;7.822;2023-07-13T14:45:40;25.80;99.90
2565;DHT22;1292;48.020;7.822;2023-07-13T14:48:15;25.80;99.90
2565;DHT22;1292;48.020;7.822;2023-07-13T14:50:42;25.90;99.90
2565;DHT22;1292;48.020;7.822;2023-07-13T14:53:11;25.90;99.90
2565;DHT22;1292;48.020;7.822;2023-07-13T14:55:39;26.00;99.90
2565;DHT22;1292;48.020;7.822;2023-07-13T14:58:06;26.10;99.90
2565;DHT22;1292;48.020;7.822;2023-07-13T15:00:33;26.20;99.90
2565;DHT22;1292;48.020;7.822;2023-07-13T15:03:01;26.20;99.90
2565;DHT22;1292;48.020;7.822;2023-07-13T15:05:31;26.30;99.90
2565;DHT22;1292;48.020;7.822;2023-07-13T15:07:59;26.40;99.90
2565;DHT22;1292;48.020;7.822;2023-07-13T15:10:29;26.40;99.90
2565;DHT22;1292;48.020;7.822;2023-07-13T15:12:59;26.60;99.90
2565;DHT22;1292;48.020;7.822;2023-07-13T15:15:27;26.70;99.90
2565;DHT22;1292;48.020;7.822;2023-07-13T15:17:54;26.80;99.90
2565;DHT22;1292;48.020;7.822;2023-07-13T15:20:26;26.90;99.90
2565;DHT22;1292;48.020;7.822;2023-07-13T15:22:53;26.90;99.90
2565;DHT22;1292;48.020;7.822;2023-07-13T15:25:21;27.10;99.90
2565;DHT22;1292;48.020;7.822;2023-07-13T15:27:51;27.30;99.90
2565;DHT22;1292;48.020;7.822;2023-07-13T15:30:18;27.20;99.90
2565;DHT22;1292;48.020;7.822;2023-07-13T15:32:46;27.30;99.90
2565;DHT22;1292;48.020;7.822;2023-07-13T15:35:16;27.30;99.90
2565;DHT22;1292;48.020;7.822;2023-07-13T15:37:44;27.30;99.90
2565;DHT22;1292;48.020;7.822;2023-07-13T15:40:11;27.30;99.90
2565;DHT22;1292;48.020;7.822;2023-07-13T15:42:39;27.50;99.90
2565;DHT22;1292;48.020;7.822;2023-07-13T15:45:17;27.60;99.90
2565;DHT22;1292;48.020;7.822;2023-07-13T15:47:44;27.50;99.90
2565;DHT22;1292;48.020;7.822;2023-07-13T15:50:13;27.60;99.90
2565;DHT22;1292;48.020;7.822;2023-07-13T15:52:44;27.50;99.90
2565;DHT22;1292;48.020;7.822;2023-07-13T15:55:13;27.40;99.90
2565;DHT22;1292;48.020;7.822;2023-07-13T15:57:43;27.20;99.90
2565;DHT22;1292;48.020;7.822;2023-07-13T16:00:20;27.10;99.90
2565;DHT22;1292;48.020;7.822;2023-07-13T16:02:49;27.20;99.90
2565;DHT22;1292;48.020;7.822;2023-07-13T16:05:18;27.10;99.90
2565;DHT22;1292;48.020;7.822;2023-07-13T16:07:49;26.90;99.90
2565;DHT22;1292;48.020;7.822;2023-07-13T16:10:21;26.90;99.90
2565;DHT22;1292;48.020;7.822;2023-07-13T16:12:48;26.80;99.90
2565;DHT22;1292;48.020;7.822;2023-07-13T16:15:19;26.90;99.90
2565;DHT22;1292;48.020;7.822;2023-07-13T16:17:47;27.00;99.90
2565;DHT22;1292;48.020;7.822;2023-07-13T16:20:15;27.00;99.90
2565;DHT22;1292;48.020;7.822;2023-07-13T16:22:45;27.00;99.90
2565;DHT22;1292;48.020;7.822;2023-07-13T16:25:15;27.00;99.90
2565;DHT22;1292;48.020;7.822;2023-07-13T16:27:44;26.80;99.30
2565;DHT22;1292;48.020;7.822;2023-07-13T16:30:13;26.80;99.90
2565;DHT22;1292;48.020;7.822;2023-07-13T16:32:42;27.00;99.90
2565;DHT22;1292;48.020;7.822;2023-07-13T16:35:10;27.20;99.90
2565;DHT22;1292;48.020;7.822;2023-07-13T16:37:39;27.40;99.90
2565;DHT22;1292;48.020;7.822;2023-07-13T16:40:20;27.30;99.90
2565;DHT22;1292;48.020;7.822;2023-07-13T16:42:51;27.20;99.90
2565;DHT22;1292;48.020;7.822;2023-07-13T16:45:19;27.00;98.90
2565;DHT22;1292;48.020;7.822;2023-07-13T16:47:50;26.80;98.60
2565;DHT22;1292;48.020;7.822;2023-07-13T16:50:20;26.70;99.90
2565;DHT22;1292;48.020;7.822;2023-07-13T16:52:49;26.70;99.90
2565;DHT22;1292;48.020;7.822;2023-07-13T16:55:18;26.60;99.90
2565;DHT22;1292;48.020;7.822;2023-07-13T16:57:48;26.60;99.90
2565;DHT22;1292;48.020;7.822;2023-07-13T17:00:20;26.70;99.90
2565;DHT22;1292;48.020;7.822;2023-07-13T17:02:56;26.80;99.90
2565;DHT22;1292;48.020;7.822;2023-07-13T17:05:28;26.70;99.10
2565;DHT22;1292;48.020;7.822;2023-07-13T17:07:56;26.60;99.10
2565;DHT22;1292;48.020;7.822;2023-07-13T17:10:24;26.60;99.90
2565;DHT22;1292;48.020;7.822;2023-07-13T17:12:54;26.70;99.90
2565;DHT22;1292;48.020;7.822;2023-07-13T17:15:22;26.70;99.90
2565;DHT22;1292;48.020;7.822;2023-07-13T17:17:55;26.80;99.90
2565;DHT22;1292;48.020;7.822;2023-07-13T17:20:36;26.80;99.90
2565;DHT22;1292;48.020;7.822;2023-07-13T17:23:12;26.80;99.90
2565;DHT22;1292;48.020;7.822;2023-07-13T17:25:40;26.90;99.40
2565;DHT22;1292;48.020;7.822;2023-07-13T17:28:07;26.90;99.30
2565;DHT22;1292;48.020;7.822;2023-07-13T17:30:35;26.90;99.90
2565;DHT22;1292;48.020;7.822;2023-07-13T17:33:07;27.00;99.80
2565;DHT22;1292;48.020;7.822;2023-07-13T17:35:35;27.00;99.20
2565;DHT22;1292;48.020;7.822;2023-07-13T17:38:03;26.90;99.30
2565;DHT22;1292;48.020;7.822;2023-07-13T17:40:31;27.00;98.80
2565;DHT22;1292;48.020;7.822;2023-07-13T17:42:58;26.80;98.80
2565;DHT22;1292;48.020;7.822;2023-07-13T17:45:27;26.80;98.80
2565;DHT22;1292;48.020;7.822;2023-07-13T17:47:54;26.70;98.60
2565;DHT22;1292;48.020;7.822;2023-07-13T17:50:27;26.80;98.60
2565;DHT22;1292;48.020;7.822;2023-07-13T17:53:01;26.70;99.00
2565;DHT22;1292;48.020;7.822;2023-07-13T17:55:31;26.60;98.60
2565;DHT22;1292;48.020;7.822;2023-07-13T17:57:59;26.50;98.40
2565;DHT22;1292;48.020;7.822;2023-07-13T18:00:29;26.40;98.40
2565;DHT22;1292;48.020;7.822;2023-07-13T18:03:05;26.40;98.60
2565;DHT22;1292;48.020;7.822;2023-07-13T18:05:37;26.20;98.30
2565;DHT22;1292;48.020;7.822;2023-07-13T18:08:05;26.10;98.80
2565;DHT22;1292;48.020;7.822;2023-07-13T18:10:32;26.20;99.00
2565;DHT22;1292;48.020;7.822;2023-07-13T18:13:00;26.20;99.80
2565;DHT22;1292;48.020;7.822;2023-07-13T18:15:29;26.20;99.00
2565;DHT22;1292;48.020;7.822;2023-07-13T18:17:59;26.10;98.90
2565;DHT22;1292;48.020;7.822;2023-07-13T18:20:26;25.90;99.40
2565;DHT22;1292;48.020;7.822;2023-07-13T18:22:56;25.80;99.30
2565;DHT22;1292;48.020;7.822;2023-07-13T18:25:24;25.60;99.90
2565;DHT22;1292;48.020;7.822;2023-07-13T18:27:52;25.60;99.90
2565;DHT22;1292;48.020;7.822;2023-07-13T18:30:20;25.60;99.80
2565;DHT22;1292;48.020;7.822;2023-07-13T18:32:50;25.50;99.90
2565;DHT22;1292;48.020;7.822;2023-07-13T18:35:25;25.50;99.90
2565;DHT22;1292;48.020;7.822;2023-07-13T18:37:54;25.40;99.80
2565;DHT22;1292;48.020;7.822;2023-07-13T18:40:22;25.40;99.90
2565;DHT22;1292;48.020;7.822;2023-07-13T18:42:52;25.30;99.90
2565;DHT22;1292;48.020;7.822;2023-07-13T18:45:20;25.30;99.90
2565;DHT22;1292;48.020;7.822;2023-07-13T18:47:55;25.30;99.90
2565;DHT22;1292;48.020;7.822;2023-07-13T18:50:28;25.30;99.90
2565;DHT22;1292;48.020;7.822;2023-07-13T18:52:56;25.30;99.90
2565;DHT22;1292;48.020;7.822;2023-07-13T18:55:24;25.20;99.90
2565;DHT22;1292;48.020;7.822;2023-07-13T18:57:51;25.20;99.90
2565;DHT22;1292;48.020;7.822;2023-07-13T19:00:21;25.10;99.90
2565;DHT22;1292;48.020;7.822;2023-07-13T19:02:52;25.00;99.90
2565;DHT22;1292;48.020;7.822;2023-07-13T19:05:21;25.00;99.90
2565;DHT22;1292;48.020;7.822;2023-07-13T19:07:49;24.90;99.90
2565;DHT22;1292;48.020;7.822;2023-07-13T19:10:18;24.80;99.90
2565;DHT22;1292;48.020;7.822;2023-07-13T19:12:49;24.60;99.90
2565;DHT22;1292;48.020;7.822;2023-07-13T19:15:19;24.60;99.90
2565;DHT22;1292;48.020;7.822;2023-07-13T19:17:48;24.60;99.90
2565;DHT22;1292;48.020;7.822;2023-07-13T19:20:17;24.50;99.90
2565;DHT22;1292;48.020;7.822;2023-07-13T19:22:50;24.50;99.90
2565;DHT22;1292;48.020;7.822;2023-07-13T19:25:21;24.40;99.90
2565;DHT22;1292;48.020;7.822;2023-07-13T19:27:53;24.40;99.90
2565;DHT22;1292;48.020;7.822;2023-07-13T19:30:23;24.40;99.90
2565;DHT22;1292;48.020;7.822;2023-07-13T19:32:50;24.30;99.90
2565;DHT22;1292;48.020;7.822;2023-07-13T19:35:18;24.30;99.90
2565;DHT22;1292;48.020;7.822;2023-07-13T19:37:45;24.30;99.90
2565;DHT22;1292;48.020;7.822;2023-07-13T19:40:20;24.20;99.90
2565;DHT22;1292;48.020;7.822;2023-07-13T19:42:48;24.10;99.90
2565;DHT22;1292;48.020;7.822;2023-07-13T19:45:18;24.10;99.90
2565;DHT22;1292;48.020;7.822;2023-07-13T19:47:47;24.10;99.90
2565;DHT22;1292;48.020;7.822;2023-07-13T19:50:16;24.10;99.90
2565;DHT22;1292;48.020;7.822;2023-07-13T19:52:48;24.00;99.90
2565;DHT22;1292;48.020;7.822;2023-07-13T19:55:18;24.00;99.90
2565;DHT22;1292;48.020;7.822;2023-07-13T19:57:49;23.90;99.90
2565;DHT22;1292;48.020;7.822;2023-07-13T20:00:19;23.80;99.90
2565;DHT22;1292;48.020;7.822;2023-07-13T20:02:47;23.80;99.90
2565;DHT22;1292;48.020;7.822;2023-07-13T20:05:15;23.80;99.90
2565;DHT22;1292;48.020;7.822;2023-07-13T20:07:43;23.80;99.90
2565;DHT22;1292;48.020;7.822;2023-07-13T20:10:22;23.70;99.90
2565;DHT22;1292;48.020;7.822;2023-07-13T20:12:52;23.70;99.90
2565;DHT22;1292;48.020;7.822;2023-07-13T20:15:22;23.60;99.90
2565;DHT22;1292;48.020;7.822;2023-07-13T20:17:51;23.60;99.90
2565;DHT22;1292;48.020;7.822;2023-07-13T20:20:26;23.50;99.90
2565;DHT22;1292;48.020;7.822;2023-07-13T20:22:55;23.40;99.90
2565;DHT22;1292;48.020;7.822;2023-07-13T20:25:24;23.30;99.90
2565;DHT22;1292;48.020;7.822;2023-07-13T20:27:54;23.30;99.90
2565;DHT22;1292;48.020;7.822;2023-07-13T20:30:22;23.20;99.90
2565;DHT22;1292;48.020;7.822;2023-07-13T20:32:50;23.10;99.90
2565;DHT22;1292;48.020;7.822;2023-07-13T20:35:27;22.90;99.90
2565;DHT22;1292;48.020;7.822;2023-07-13T20:37:55;22.50;99.90
2565;DHT22;1292;48.020;7.822;2023-07-13T20:40:25;22.30;99.90
2565;DHT22;1292;48.020;7.822;2023-07-13T20:42:54;22.00;99.90
2565;DHT22;1292;48.020;7.822;2023-07-13T20:45:24;21.90;99.90
2565;DHT22;1292;48.020;7.822;2023-07-13T20:47:53;21.70;99.90
2565;DHT22;1292;48.020;7.822;2023-07-13T20:50:22;21.60;99.90
2565;DHT22;1292;48.020;7.822;2023-07-13T20:52:52;21.60;99.90
2565;DHT22;1292;48.020;7.822;2023-07-13T20:55:22;21.50;99.90
2565;DHT22;1292;48.020;7.822;2023-07-13T20:57:50;21.40;99.90
2565;DHT22;1292;48.020;7.822;2023-07-13T21:00:20;21.40;99.90
2565;DHT22;1292;48.020;7.822;2023-07-13T21:02:49;21.30;99.90
2565;DHT22;1292;48.020;7.822;2023-07-13T21:05:19;21.40;99.90
2565;DHT22;1292;48.020;7.822;2023-07-13T21:07:47;21.40;99.90
2565;DHT22;1292;48.020;7.822;2023-07-13T21:10:16;21.50;99.90
2565;DHT22;1292;48.020;7.822;2023-07-13T21:12:44;21.60;99.90
2565;DHT22;1292;48.020;7.822;2023-07-13T21:15:11;21.60;99.90
2565;DHT22;1292;48.020;7.822;2023-07-13T21:17:39;21.60;99.90
2565;DHT22;1292;48.020;7.822;2023-07-13T21:20:18;21.50;99.90
2565;DHT22;1292;48.020;7.822;2023-07-13T21:22:45;21.50;99.90
2565;DHT22;1292;48.020;7.822;2023-07-13T21:25:17;21.50;99.90
2565;DHT22;1292;48.020;7.822;2023-07-13T21:27:45;21.40;99.90
2565;DHT22;1292;48.020;7.822;2023-07-13T21:30:17;21.40;99.90
2565;DHT22;1292;48.020;7.822;2023-07-13T21:32:48;21.30;99.90
2565;DHT22;1292;48.020;7.822;2023-07-13T21:35:25;21.20;99.90
2565;DHT22;1292;48.020;7.822;2023-07-13T21:37:53;21.20;99.90
